Observations for MILANO LINATE, Italy (LIML)

LIML 181450Z 13009KT 100V160 CAVOK 20/06 Q1023 NOSIG
LIML 181420Z 14009KT 100V170 CAVOK 20/06 Q1023 NOSIG
LIML 181350Z 10009KT 060V140 CAVOK 21/07 Q1024 NOSIG
LIML 181320Z 12010KT 090V150 CAVOK 20/06 Q1024 NOSIG
LIML 181250Z 12008KT 080V180 CAVOK 20/07 Q1024 NOSIG
LIML 181220Z 13008KT 070V160 CAVOK 20/08 Q1024 NOSIG
LIML 181150Z 10008KT 050V150 CAVOK 20/08 Q1024 NOSIG
LIML 181120Z 11008KT 060V170 CAVOK 20/08 Q1024 NOSIG
LIML 181050Z 10006KT 050V170 CAVOK 19/08 Q1025 NOSIG
LIML 181020Z 10007KT 040V160 CAVOK 18/09 Q1025 NOSIG
LIML 180950Z 12009KT CAVOK 18/09 Q1025 NOSIG
LIML 180920Z 12010KT CAVOK 17/08 Q1025 NOSIG
LIML 180850Z 12009KT 080V170 CAVOK 17/08 Q1025 NOSIG
LIML 180820Z 12010KT 090V160 CAVOK 16/08 Q1025 NOSIG
LIML 180750Z 12010KT 090V150 CAVOK 15/08 Q1025 NOSIG
LIML 180720Z 11008KT CAVOK 15/08 Q1024 NOSIG
LIML 180650Z 12009KT 090V150 CAVOK 14/08 Q1024 NOSIG
LIML 180620Z 10006KT 060V130 CAVOK 13/07 Q1024 NOSIG
LIML 180550Z 09003KT 040V130 CAVOK 12/07 Q1024 NOSIG
LIML 180520Z 09003KT 040V130 CAVOK 11/06 Q1023 NOSIG
LIML 180450Z VRB02KT CAVOK 09/06 Q1023 NOSIG
LIML 180420Z VRB01KT CAVOK 10/06 Q1023 NOSIG
LIML 180350Z 01003KT CAVOK 11/06 Q1022 NOSIG
LIML 180320Z VRB01KT CAVOK 10/07 Q1022 NOSIG
LIML 180250Z VRB02KT CAVOK 10/07 Q1022 NOSIG
LIML 180220Z 06003KT 350V090 CAVOK 11/07 Q1022 NOSIG
LIML 180150Z VRB01KT CAVOK 12/07 Q1022 NOSIG
LIML 180120Z 04002KT CAVOK 12/07 Q1022 NOSIG
LIML 180050Z 03003KT CAVOK 11/07 Q1022 NOSIG
LIML 180020Z 01002KT CAVOK 11/07 Q1022 NOSIG
LIML 172350Z 35002KT CAVOK 11/07 Q1022 NOSIG
LIML 172320Z 35001KT CAVOK 11/08 Q1022 NOSIG
LIML 172250Z VRB02KT CAVOK 12/08 Q1022 NOSIG
LIML 172220Z 01002KT CAVOK 12/09 Q1021 NOSIG
LIML 172150Z 02003KT CAVOK 13/07 Q1021 NOSIG
LIML 172120Z 36001KT CAVOK 13/09 Q1021 NOSIG
LIML 172050Z VRB01KT CAVOK 13/09 Q1021 NOSIG
LIML 172020Z VRB01KT CAVOK 14/08 Q1020 NOSIG
LIML 171950Z VRB01KT CAVOK 15/08 Q1020 NOSIG
LIML 171920Z VRB02KT CAVOK 17/05 Q1020 NOSIG
LIML 171850Z 18003KT CAVOK 17/05 Q1020 NOSIG
LIML 171820Z 15004KT 120V180 CAVOK 19/05 Q1019 NOSIG
LIML 171750Z 16005KT CAVOK 19/05 Q1019 NOSIG
LIML 171720Z 16005KT CAVOK 20/06 Q1019 NOSIG
LIML 171650Z 17005KT CAVOK 21/06 Q1019 NOSIG
LIML 171620Z 17004KT 130V210 CAVOK 21/05 Q1019 NOSIG
LIML 171550Z VRB02KT CAVOK 22/04 Q1019 NOSIG
LIML 171520Z VRB04KT 9999 FEW060 22/06 Q1019 NOSIG  
LIML 171450Z 27005KT 210V310 9999 FEW060 22/05 Q1019 NOSIG  
LIML 171420Z VRB04KT 9999 FEW050 22/06 Q1019 NOSIG